createdAt,value
2022-08-27T00:00:56.873Z,50.93
2022-08-27T00:03:24.891Z,50.59
2022-08-27T00:05:52.906Z,50.77
2022-08-27T00:08:20.946Z,50.71
2022-08-27T00:10:48.908Z,51.05
2022-08-27T00:13:18.254Z,50.68
2022-08-27T00:15:46.271Z,50.82
2022-08-27T00:18:14.448Z,50.91
2022-08-27T00:20:43.924Z,51.08
2022-08-27T00:23:12.038Z,50.84
2022-08-27T00:25:40.565Z,50.91
2022-08-27T00:28:08.685Z,51.28
2022-08-27T00:30:40.032Z,50.64
2022-08-27T00:33:08.205Z,51.25
2022-08-27T00:35:36.870Z,51.47
2022-08-27T00:38:05.447Z,51.13
2022-08-27T00:40:34.195Z,51.26
2022-08-27T00:43:03.682Z,51.30
2022-08-27T00:45:38.277Z,51.28
2022-08-27T00:48:10.926Z,50.91
2022-08-27T00:50:43.734Z,50.97
2022-08-27T00:53:16.688Z,51.11
2022-08-27T00:56:03.257Z,51.42
2022-08-27T00:58:37.680Z,52.17
2022-08-27T01:01:10.978Z,52.18
2022-08-27T01:03:42.879Z,51.97
2022-08-27T01:06:16.065Z,52.09
2022-08-27T01:08:52.281Z,52.17
2022-08-27T01:11:24.608Z,51.61
2022-08-27T01:14:00.949Z,52.11
2022-08-27T01:16:37.181Z,52.06
2022-08-27T01:19:13.081Z,51.51
2022-08-27T01:21:52.913Z,52.12
2022-08-27T01:24:35.737Z,51.65
2022-08-27T01:27:13.318Z,51.33
2022-08-27T01:29:45.037Z,51.58
2022-08-27T01:32:17.576Z,51.76
2022-08-27T01:34:47.025Z,51.32
2022-08-27T01:37:17.400Z,51.52
2022-08-27T01:39:55.823Z,51.24
2022-08-27T01:42:31.401Z,51.41
2022-08-27T01:45:05.782Z,51.15
2022-08-27T01:47:36.093Z,50.97
2022-08-27T01:50:06.364Z,51.64
2022-08-27T01:52:34.370Z,51.45
2022-08-27T01:55:05.659Z,51.37
2022-08-27T01:57:35.388Z,51.25
2022-08-27T02:00:04.769Z,51.62
2022-08-27T02:02:40.569Z,51.77
2022-08-27T02:05:09.931Z,51.19
2022-08-27T02:07:38.034Z,51.42
2022-08-27T02:10:09.903Z,50.85
2022-08-27T02:12:38.005Z,51.02
2022-08-27T02:15:07.113Z,51.44
2022-08-27T02:17:35.665Z,51.73
2022-08-27T02:20:04.773Z,51.91
2022-08-27T02:22:33.142Z,51.72
2022-08-27T02:25:01.364Z,52.26
2022-08-27T02:27:31.195Z,51.84
2022-08-27T02:29:59.700Z,51.96
2022-08-27T02:32:31.842Z,51.95
2022-08-27T02:35:01.447Z,51.65
2022-08-27T02:37:30.272Z,51.26
2022-08-27T02:39:59.342Z,51.85
2022-08-27T02:42:28.225Z,51.61
2022-08-27T02:45:00.258Z,51.54
2022-08-27T02:47:31.098Z,51.91
2022-08-27T02:50:01.863Z,52.01
2022-08-27T02:52:31.691Z,51.87
2022-08-27T02:55:02.627Z,51.72
2022-08-27T02:57:36.701Z,51.77
2022-08-27T03:00:12.856Z,51.82
2022-08-27T03:02:43.075Z,51.86
2022-08-27T03:05:16.203Z,52.16
2022-08-27T03:07:46.627Z,52.12
2022-08-27T03:10:18.681Z,52.62
2022-08-27T03:12:47.712Z,51.96
2022-08-27T03:15:20.899Z,51.64
2022-08-27T03:20:41.574Z,52.42
2022-08-27T03:23:11.838Z,52.38
2022-08-27T03:25:45.961Z,52.06
2022-08-27T03:28:20.596Z,51.94
2022-08-27T03:30:59.098Z,52.22
2022-08-27T03:33:29.704Z,52.02
2022-08-27T03:35:59.413Z,52.31
2022-08-27T03:38:30.887Z,51.52
2022-08-27T03:41:00.528Z,52.00
2022-08-27T03:43:29.594Z,52.03
2022-08-27T03:46:01.632Z,51.77
2022-08-27T03:48:32.150Z,51.34
2022-08-27T03:51:06.666Z,51.38
2022-08-27T03:53:35.422Z,51.49
2022-08-27T03:56:06.286Z,51.55
2022-08-27T03:58:34.877Z,51.95
2022-08-27T04:01:05.128Z,52.21
2022-08-27T04:03:34.070Z,51.93
2022-08-27T04:06:03.545Z,51.37
2022-08-27T04:08:33.286Z,51.64
2022-08-27T04:11:01.354Z,51.31
2022-08-27T04:13:30.446Z,51.39
2022-08-27T04:16:01.158Z,51.28
2022-08-27T04:18:30.975Z,51.28
2022-08-27T04:21:00.830Z,51.29
2022-08-27T04:23:30.241Z,51.48
2022-08-27T04:25:58.484Z,51.97
2022-08-27T04:28:28.607Z,51.35
2022-08-27T04:30:57.120Z,51.52
2022-08-27T04:33:25.189Z,52.03
2022-08-27T04:36:00.644Z,52.45
2022-08-27T04:38:29.078Z,52.49
2022-08-27T04:41:14.770Z,52.26
2022-08-27T04:43:43.372Z,52.16
2022-08-27T04:46:12.780Z,52.84
2022-08-27T04:48:41.151Z,52.20
2022-08-27T04:51:11.495Z,52.28
2022-08-27T04:53:44.188Z,52.91
2022-08-27T04:56:16.302Z,52.53
2022-08-27T04:58:46.304Z,52.46
2022-08-27T05:01:21.466Z,52.74
2022-08-27T05:03:52.511Z,52.88
2022-08-27T05:06:25.228Z,52.27
2022-08-27T05:08:54.801Z,52.42
2022-08-27T05:11:29.006Z,52.42
2022-08-27T05:14:00.312Z,52.34
2022-08-27T05:16:30.668Z,52.83
2022-08-27T05:19:01.490Z,52.70
2022-08-27T05:21:35.408Z,52.17
2022-08-27T05:24:08.958Z,52.11
2022-08-27T05:26:40.838Z,52.20
2022-08-27T05:29:09.660Z,52.57
2022-08-27T05:31:39.684Z,52.56
2022-08-27T05:34:16.453Z,52.92
2022-08-27T05:36:53.856Z,52.44
2022-08-27T05:39:22.107Z,52.46
2022-08-27T05:41:53.185Z,52.93
2022-08-27T05:47:11.298Z,52.49
2022-08-27T05:49:40.624Z,52.77
2022-08-27T05:52:14.471Z,52.83
2022-08-27T05:54:44.269Z,52.20
2022-08-27T05:57:14.876Z,52.57
2022-08-27T06:00:02.241Z,53.04
2022-08-27T06:02:43.242Z,53.09
2022-08-27T06:05:14.433Z,52.76
2022-08-27T06:07:45.832Z,52.76
2022-08-27T06:10:16.460Z,53.16
2022-08-27T06:12:47.828Z,53.01
2022-08-27T06:15:18.999Z,53.12
2022-08-27T06:17:48.559Z,53.49
2022-08-27T06:20:19.070Z,54.00
2022-08-27T06:22:51.615Z,53.67
2022-08-27T06:25:21.797Z,54.26
2022-08-27T06:27:51.587Z,53.60
2022-08-27T06:30:21.681Z,53.59
2022-08-27T06:32:54.498Z,53.65
2022-08-27T06:35:25.510Z,53.60
2022-08-27T06:37:58.506Z,53.96
2022-08-27T06:40:27.935Z,53.50
2022-08-27T06:42:56.894Z,53.96
2022-08-27T06:45:28.721Z,53.68
2022-08-27T06:47:59.722Z,53.52
2022-08-27T06:50:30.650Z,54.24
2022-08-27T06:53:01.908Z,53.83
2022-08-27T06:55:35.356Z,53.92
2022-08-27T06:58:07.704Z,54.02
2022-08-27T07:00:37.597Z,54.74
2022-08-27T07:03:09.057Z,54.29
2022-08-27T07:05:41.583Z,54.45
2022-08-27T07:08:12.267Z,54.27
2022-08-27T07:10:41.454Z,53.88
2022-08-27T07:13:12.035Z,53.59
2022-08-27T07:15:42.511Z,53.03
2022-08-27T07:18:12.133Z,52.14
2022-08-27T07:20:42.713Z,52.35
2022-08-27T07:23:12.694Z,55.82
2022-08-27T07:25:43.278Z,54.78
2022-08-27T07:28:12.938Z,55.30
2022-08-27T07:30:42.271Z,53.37
2022-08-27T07:33:12.243Z,53.50
2022-08-27T07:35:42.332Z,53.41
2022-08-27T07:38:13.032Z,53.11
2022-08-27T07:40:42.548Z,52.02
2022-08-27T07:43:28.490Z,52.62
2022-08-27T07:45:58.413Z,52.53
2022-08-27T07:48:28.006Z,52.17
2022-08-27T07:50:56.499Z,52.19
2022-08-27T07:53:26.360Z,52.56
2022-08-27T07:55:56.309Z,52.68
2022-08-27T07:58:25.930Z,52.39
2022-08-27T08:00:59.413Z,52.40
2022-08-27T08:03:29.291Z,51.89
2022-08-27T08:05:59.738Z,52.21
2022-08-27T08:08:32.247Z,51.78
2022-08-27T08:11:02.868Z,51.37
2022-08-27T08:13:33.777Z,51.52
2022-08-27T08:16:06.377Z,51.15
2022-08-27T08:18:36.884Z,50.92
2022-08-27T08:21:07.724Z,49.64
2022-08-27T08:23:41.405Z,50.63
2022-08-27T08:26:14.226Z,49.96
2022-08-27T08:28:45.133Z,49.06
2022-08-27T08:31:16.698Z,49.58
2022-08-27T08:33:48.948Z,50.20
2022-08-27T08:36:21.073Z,49.47
2022-08-27T08:38:51.262Z,49.31
2022-08-27T08:41:41.198Z,48.75
2022-08-27T08:44:23.221Z,48.85
2022-08-27T08:47:02.279Z,49.12
2022-08-27T08:49:41.557Z,49.43
2022-08-27T08:52:30.931Z,48.78
2022-08-27T08:55:15.876Z,48.46
2022-08-27T08:57:51.424Z,48.57
2022-08-27T09:00:22.062Z,48.79
2022-08-27T09:02:57.061Z,48.76
2022-08-27T09:05:28.490Z,49.17
2022-08-27T09:08:32.894Z,49.19
2022-08-27T09:11:11.624Z,49.63
2022-08-27T09:13:50.591Z,49.26
2022-08-27T09:16:22.190Z,48.80
2022-08-27T09:18:56.779Z,48.64
2022-08-27T09:21:38.963Z,48.90
2022-08-27T09:24:17.594Z,49.60
2022-08-27T09:26:49.916Z,49.67
2022-08-27T09:29:21.730Z,49.66
2022-08-27T09:31:57.740Z,49.80
2022-08-27T09:34:29.327Z,49.59
2022-08-27T09:37:03.661Z,49.80
2022-08-27T09:39:52.904Z,49.63
2022-08-27T09:42:40.140Z,49.63
2022-08-27T09:45:11.840Z,49.20
2022-08-27T09:47:46.684Z,49.26
2022-08-27T09:50:17.993Z,49.24
2022-08-27T09:52:52.753Z,49.57
2022-08-27T09:55:29.879Z,49.71
2022-08-27T09:58:00.165Z,50.17
2022-08-27T10:00:35.911Z,49.35
2022-08-27T10:03:04.760Z,49.24
2022-08-27T10:05:38.792Z,48.80
2022-08-27T10:08:20.746Z,48.68
2022-08-27T10:10:59.632Z,47.80
2022-08-27T10:13:38.982Z,47.04
2022-08-27T10:16:31.290Z,46.46
2022-08-27T10:19:13.325Z,45.24
2022-08-27T10:21:50.948Z,45.43
2022-08-27T10:24:32.824Z,44.88
2022-08-27T10:27:13.586Z,45.66
2022-08-27T10:29:55.795Z,46.68
2022-08-27T10:32:44.809Z,45.06
2022-08-27T10:35:19.194Z,44.67
2022-08-27T10:37:56.359Z,44.31
2022-08-27T10:40:32.175Z,44.29
2022-08-27T10:43:15.685Z,42.72
2022-08-27T10:45:53.829Z,42.72
2022-08-27T10:48:29.492Z,44.77
2022-08-27T10:51:04.460Z,44.96
2022-08-27T10:53:40.590Z,46.03
2022-08-27T10:56:17.886Z,46.71
2022-08-27T10:59:02.473Z,46.76
2022-08-27T11:01:43.338Z,46.44
2022-08-27T11:04:20.812Z,45.97
2022-08-27T11:06:58.400Z,45.82
2022-08-27T11:09:37.842Z,45.74
2022-08-27T11:12:14.894Z,43.96
2022-08-27T11:14:52.886Z,45.56
2022-08-27T11:17:44.564Z,44.59
2022-08-27T11:20:21.005Z,44.81
2022-08-27T11:22:56.651Z,45.05
2022-08-27T11:25:51.217Z,43.49
2022-08-27T11:28:30.140Z,43.43
2022-08-27T11:31:09.236Z,43.46
2022-08-27T11:33:47.568Z,44.07
2022-08-27T11:36:36.862Z,43.97
2022-08-27T11:39:17.931Z,44.65
2022-08-27T11:42:01.346Z,44.25
2022-08-27T11:44:30.080Z,44.35
2022-08-27T11:47:09.402Z,44.39
2022-08-27T11:49:47.428Z,45.75
2022-08-27T11:52:24.927Z,44.67
2022-08-27T11:55:10.807Z,43.94
2022-08-27T11:57:40.270Z,44.38
2022-08-27T12:00:21.060Z,44.55
2022-08-27T12:02:58.646Z,43.99
2022-08-27T12:05:38.625Z,43.24
2022-08-27T12:08:18.829Z,43.29
2022-08-27T12:11:06.869Z,43.24
2022-08-27T12:13:40.528Z,43.53
2022-08-27T12:16:23.643Z,42.32
2022-08-27T12:19:04.779Z,42.19
2022-08-27T12:21:51.469Z,42.16
2022-08-27T12:24:55.720Z,42.91
2022-08-27T12:27:35.599Z,42.94
2022-08-27T12:30:20.067Z,43.20
2022-08-27T12:32:53.298Z,43.42
2022-08-27T12:35:29.166Z,43.33
2022-08-27T12:38:12.688Z,43.61
2022-08-27T12:40:52.096Z,43.61
2022-08-27T12:43:25.564Z,43.76
2022-08-27T12:45:58.268Z,43.30
2022-08-27T12:48:30.829Z,42.02
2022-08-27T12:51:03.490Z,41.99
2022-08-27T12:53:54.595Z,41.27
2022-08-27T12:56:46.526Z,41.40
2022-08-27T12:59:38.429Z,41.68
2022-08-27T13:02:25.003Z,41.32
2022-08-27T13:04:55.917Z,42.07
2022-08-27T13:07:37.893Z,42.81
2022-08-27T13:10:14.831Z,42.98
2022-08-27T13:12:45.439Z,42.62
2022-08-27T13:15:18.057Z,42.61
2022-08-27T13:17:48.452Z,42.26
2022-08-27T13:20:21.782Z,42.64
2022-08-27T13:22:52.368Z,42.71
2022-08-27T13:25:27.269Z,43.74
2022-08-27T13:28:04.226Z,43.14
2022-08-27T13:30:36.781Z,41.08
2022-08-27T13:33:08.338Z,41.08
2022-08-27T13:35:43.119Z,40.93
2022-08-27T13:38:12.632Z,39.63
2022-08-27T13:40:58.206Z,39.93
2022-08-27T13:43:34.847Z,40.30
2022-08-27T13:46:16.484Z,41.22
2022-08-27T13:48:52.223Z,41.41
2022-08-27T13:51:30.108Z,42.05
2022-08-27T13:54:15.322Z,42.71
2022-08-27T13:57:04.664Z,42.80
2022-08-27T13:59:37.007Z,43.03
2022-08-27T14:02:23.150Z,43.44
2022-08-27T14:04:55.265Z,43.25
2022-08-27T14:07:33.695Z,43.88
2022-08-27T14:10:07.700Z,43.14
2022-08-27T14:12:41.312Z,43.48
2022-08-27T14:15:16.762Z,43.41
2022-08-27T14:17:47.362Z,43.33
2022-08-27T14:20:17.891Z,44.02
2022-08-27T14:22:50.117Z,44.36
2022-08-27T14:25:22.344Z,43.71
2022-08-27T14:27:57.873Z,43.51
2022-08-27T14:30:29.544Z,43.19
2022-08-27T14:33:01.322Z,43.25
2022-08-27T14:35:35.440Z,43.01
2022-08-27T14:38:13.916Z,42.58
2022-08-27T14:40:43.855Z,42.28
2022-08-27T14:43:14.330Z,42.08
2022-08-27T14:45:45.896Z,42.49
2022-08-27T14:48:19.417Z,42.36
2022-08-27T14:50:48.021Z,42.26
2022-08-27T14:53:16.138Z,42.13
2022-08-27T14:55:46.876Z,42.35
2022-08-27T14:58:21.642Z,43.24
2022-08-27T15:00:52.155Z,44.29
2022-08-27T15:03:20.893Z,45.31
2022-08-27T15:05:49.095Z,45.82
2022-08-27T15:08:18.606Z,45.77
2022-08-27T15:10:53.476Z,46.19
2022-08-27T15:13:25.263Z,46.65
2022-08-27T15:15:55.123Z,45.91
2022-08-27T15:18:26.130Z,45.73
2022-08-27T15:20:58.056Z,45.36
2022-08-27T15:23:29.460Z,45.39
2022-08-27T15:26:00.495Z,45.45
2022-08-27T15:28:31.411Z,45.69
2022-08-27T15:31:00.006Z,45.88
2022-08-27T15:33:29.106Z,45.08
2022-08-27T15:36:03.876Z,45.42
2022-08-27T15:38:33.418Z,45.02
2022-08-27T15:41:07.033Z,45.11
2022-08-27T15:43:40.357Z,45.03
2022-08-27T15:46:08.866Z,43.89
2022-08-27T15:48:40.675Z,43.33
2022-08-27T15:51:17.034Z,43.19
2022-08-27T15:53:49.533Z,43.21
2022-08-27T15:56:21.889Z,42.80
2022-08-27T15:58:52.599Z,42.41
2022-08-27T16:01:28.272Z,42.57
2022-08-27T16:03:58.479Z,42.42
2022-08-27T16:06:30.755Z,42.24
2022-08-27T16:09:03.878Z,42.47
2022-08-27T16:11:36.210Z,42.49
2022-08-27T16:14:12.425Z,42.55
2022-08-27T16:16:47.184Z,42.63
2022-08-27T16:19:20.529Z,42.36
2022-08-27T16:21:51.155Z,42.43
2022-08-27T16:24:23.673Z,41.82
2022-08-27T16:26:53.726Z,41.53
2022-08-27T16:29:26.682Z,41.90
2022-08-27T16:32:01.422Z,42.45
2022-08-27T16:34:33.838Z,42.38
2022-08-27T16:37:06.320Z,42.62
2022-08-27T16:39:40.599Z,43.06
2022-08-27T16:42:12.497Z,43.77
2022-08-27T16:44:43.659Z,43.71
2022-08-27T16:47:14.719Z,43.54
2022-08-27T16:50:01.204Z,42.32
2022-08-27T16:52:32.470Z,42.28
2022-08-27T16:55:03.794Z,42.21
2022-08-27T16:57:34.761Z,42.95
2022-08-27T17:00:07.229Z,42.61
2022-08-27T17:02:39.642Z,42.42
2022-08-27T17:05:33.622Z,43.15
2022-08-27T17:08:04.516Z,43.01
2022-08-27T17:10:37.674Z,43.35
2022-08-27T17:13:10.338Z,43.47
2022-08-27T17:15:41.027Z,43.70
2022-08-27T17:18:10.439Z,43.76
2022-08-27T17:20:42.045Z,43.51
2022-08-27T17:23:18.308Z,44.06
2022-08-27T17:25:50.413Z,43.58
2022-08-27T17:28:22.610Z,43.33
2022-08-27T17:30:56.324Z,43.19
2022-08-27T17:33:33.906Z,43.87
2022-08-27T17:36:03.975Z,43.50
2022-08-27T17:38:39.741Z,43.45
2022-08-27T17:41:15.097Z,43.60
2022-08-27T17:43:46.619Z,43.19
2022-08-27T17:46:17.621Z,43.32
2022-08-27T17:48:46.083Z,43.33
2022-08-27T17:51:14.546Z,43.46
2022-08-27T17:53:47.972Z,43.42
2022-08-27T17:56:15.921Z,43.42
2022-08-27T17:58:44.455Z,43.52
2022-08-27T18:01:14.451Z,43.77
2022-08-27T18:03:49.672Z,43.92
2022-08-27T18:06:22.690Z,43.76
2022-08-27T18:08:54.182Z,44.06
2022-08-27T18:11:25.196Z,44.50
2022-08-27T18:14:04.542Z,43.92
2022-08-27T18:16:37.216Z,44.09
2022-08-27T18:19:08.860Z,44.69
2022-08-27T18:21:39.915Z,44.38
2022-08-27T18:24:20.242Z,44.62
2022-08-27T18:26:53.868Z,44.57
2022-08-27T18:29:25.591Z,44.94
2022-08-27T18:31:58.198Z,45.13
2022-08-27T18:34:31.002Z,44.92
2022-08-27T18:37:02.655Z,44.70
2022-08-27T18:39:33.151Z,45.08
2022-08-27T18:42:04.574Z,45.32
2022-08-27T18:44:39.328Z,45.30
2022-08-27T18:47:08.053Z,45.36
2022-08-27T18:49:40.218Z,44.84
2022-08-27T18:52:12.677Z,45.02
2022-08-27T18:54:43.725Z,44.73
2022-08-27T18:57:13.879Z,44.85
2022-08-27T18:59:45.774Z,44.65
2022-08-27T19:02:21.100Z,44.97
2022-08-27T19:04:53.963Z,44.87
2022-08-27T19:07:31.123Z,45.05
2022-08-27T19:10:02.164Z,44.55
2022-08-27T19:12:33.735Z,44.80
2022-08-27T19:15:12.503Z,44.84
2022-08-27T19:17:47.950Z,45.03
2022-08-27T19:20:21.380Z,44.84
2022-08-27T19:22:53.030Z,44.83
2022-08-27T19:25:23.210Z,44.93
2022-08-27T19:27:54.700Z,44.87
2022-08-27T19:30:24.477Z,44.78
2022-08-27T19:32:57.713Z,44.96
2022-08-27T19:35:29.980Z,44.70
2022-08-27T19:38:01.642Z,45.38
2022-08-27T19:40:32.417Z,44.68
2022-08-27T19:43:05.377Z,44.69
2022-08-27T19:45:34.322Z,44.48
2022-08-27T19:48:02.664Z,44.62
2022-08-27T19:50:32.253Z,44.42
2022-08-27T19:53:00.610Z,45.06
2022-08-27T19:55:28.726Z,44.83
2022-08-27T19:57:56.681Z,44.62
2022-08-27T20:00:27.683Z,44.57
2022-08-27T20:02:59.335Z,44.96
2022-08-27T20:05:30.134Z,44.52
2022-08-27T20:08:04.607Z,44.56
2022-08-27T20:10:37.244Z,44.51
2022-08-27T20:13:08.392Z,44.33
2022-08-27T20:15:40.652Z,44.27
2022-08-27T20:18:11.712Z,44.09
2022-08-27T20:20:41.929Z,44.54
2022-08-27T20:23:13.835Z,44.19
2022-08-27T20:25:45.093Z,44.33
2022-08-27T20:28:38.237Z,44.48
2022-08-27T20:31:07.302Z,44.03
2022-08-27T20:33:37.329Z,44.22
2022-08-27T20:36:07.969Z,44.48
2022-08-27T20:38:40.386Z,43.52
2022-08-27T20:41:09.203Z,44.21
2022-08-27T20:43:40.218Z,44.03
2022-08-27T20:46:11.172Z,44.01
2022-08-27T20:48:41.796Z,44.48
2022-08-27T20:51:10.721Z,44.25
2022-08-27T20:53:42.622Z,44.46
2022-08-27T20:56:14.985Z,43.86
2022-08-27T20:59:03.685Z,44.10
2022-08-27T21:01:35.094Z,43.59
2022-08-27T21:04:08.568Z,43.76
2022-08-27T21:06:39.799Z,43.66
2022-08-27T21:09:12.069Z,43.66
2022-08-27T21:11:42.395Z,43.21
2022-08-27T21:14:12.263Z,43.59
2022-08-27T21:16:42.371Z,43.39
2022-08-27T21:19:13.672Z,43.42
2022-08-27T21:21:43.631Z,43.28
2022-08-27T21:24:16.537Z,43.16
2022-08-27T21:26:49.314Z,43.25
2022-08-27T21:29:20.898Z,43.29
2022-08-27T21:31:55.245Z,43.16
2022-08-27T21:34:28.958Z,43.23
2022-08-27T21:37:04.517Z,43.06
2022-08-27T21:39:40.803Z,43.55
2022-08-27T21:42:21.752Z,43.55
2022-08-27T21:44:50.605Z,43.82
2022-08-27T21:47:18.669Z,43.59
2022-08-27T21:49:49.175Z,43.62
2022-08-27T21:52:17.947Z,43.71
2022-08-27T21:54:47.414Z,43.74
2022-08-27T21:57:16.754Z,43.61
2022-08-27T21:59:49.165Z,44.01
2022-08-27T22:05:09.422Z,44.18
2022-08-27T22:07:37.347Z,43.93
2022-08-27T22:10:08.640Z,44.13
2022-08-27T22:12:37.364Z,43.87
2022-08-27T22:15:08.265Z,43.85
2022-08-27T22:17:37.172Z,43.60
2022-08-27T22:20:07.583Z,43.92
2022-08-27T22:22:38.035Z,43.93
2022-08-27T22:25:10.405Z,44.41
2022-08-27T22:27:40.035Z,44.43
2022-08-27T22:30:11.791Z,43.98
2022-08-27T22:32:42.379Z,43.93
2022-08-27T22:35:13.826Z,44.96
2022-08-27T22:37:47.294Z,44.26
2022-08-27T22:40:24.183Z,44.78
2022-08-27T22:42:56.492Z,44.41
2022-08-27T22:45:27.381Z,44.74
2022-08-27T22:47:57.809Z,44.98
2022-08-27T22:50:26.568Z,44.73
2022-08-27T22:52:55.182Z,44.58
2022-08-27T22:55:25.325Z,44.89
2022-08-27T22:57:55.564Z,44.14
2022-08-27T23:00:27.266Z,44.56
2022-08-27T23:02:55.988Z,45.06
2022-08-27T23:05:24.868Z,44.64
2022-08-27T23:07:54.805Z,45.23
2022-08-27T23:10:25.323Z,44.53
2022-08-27T23:12:54.614Z,45.04
2022-08-27T23:15:25.509Z,44.60
2022-08-27T23:17:54.654Z,44.72
2022-08-27T23:20:24.120Z,45.38
2022-08-27T23:22:52.775Z,45.13
2022-08-27T23:25:45.475Z,44.74
2022-08-27T23:28:15.549Z,45.37
2022-08-27T23:30:45.103Z,44.95
2022-08-27T23:33:14.473Z,45.19
2022-08-27T23:35:48.042Z,45.71
2022-08-27T23:38:17.218Z,45.68
2022-08-27T23:40:48.221Z,45.19
2022-08-27T23:43:17.419Z,44.82
2022-08-27T23:45:46.102Z,45.37
2022-08-27T23:48:14.504Z,45.16
2022-08-27T23:50:42.756Z,44.78
2022-08-27T23:53:12.050Z,44.69
2022-08-27T23:55:41.035Z,44.44
2022-08-27T23:58:11.424Z,44.26
